createdAt,value
2017-04-25T00:00:37.406Z,999.68
2017-04-25T00:01:18.026Z,999.64
2017-04-25T00:01:58.619Z,999.66
2017-04-25T00:02:39.252Z,999.67
2017-04-25T00:03:19.863Z,999.66
2017-04-25T00:04:00.479Z,999.67
2017-04-25T00:04:41.069Z,999.7
2017-04-25T00:05:21.675Z,999.69
2017-04-25T00:06:02.358Z,999.69
2017-04-25T00:06:42.956Z,999.67
2017-04-25T00:07:23.576Z,999.64
2017-04-25T00:08:04.183Z,999.61
2017-04-25T00:08:44.786Z,999.61
2017-04-25T00:09:25.403Z,999.6
2017-04-25T00:10:06.031Z,999.61
2017-04-25T00:10:46.630Z,999.6
2017-04-25T00:11:27.247Z,999.54
2017-04-25T00:12:07.849Z,999.54
2017-04-25T00:12:48.475Z,999.55
2017-04-25T00:13:29.093Z,999.52
2017-04-25T00:14:09.711Z,999.54
2017-04-25T00:14:50.344Z,999.5
2017-04-25T00:15:30.979Z,999.49
2017-04-25T00:16:11.593Z,999.48
2017-04-25T00:16:52.202Z,999.44
2017-04-25T00:17:32.810Z,999.43
2017-04-25T00:18:13.407Z,999.4
2017-04-25T00:18:54.023Z,999.41
2017-04-25T00:19:34.652Z,999.34
2017-04-25T00:20:15.267Z,999.32
2017-04-25T00:20:55.888Z,999.29
2017-04-25T00:21:36.500Z,999.32
2017-04-25T00:22:17.120Z,999.24
2017-04-25T00:22:57.727Z,999.27
2017-04-25T00:23:38.340Z,999.22
2017-04-25T00:24:18.938Z,999.17
2017-04-25T00:24:59.542Z,999.16
2017-04-25T00:25:40.150Z,999.15
2017-04-25T00:26:20.748Z,999.16
2017-04-25T00:27:01.366Z,999.1
2017-04-25T00:27:41.982Z,999.12
2017-04-25T00:28:22.599Z,999.09
2017-04-25T00:29:03.194Z,999.09
2017-04-25T00:29:43.799Z,999.06
2017-04-25T00:30:24.417Z,999.14
2017-04-25T00:31:05.024Z,999.03
2017-04-25T00:31:45.632Z,999.04
2017-04-25T00:32:26.235Z,999.04
2017-04-25T00:33:06.843Z,999.02
2017-04-25T00:33:47.456Z,998.97
2017-04-25T00:34:28.065Z,999.03
2017-04-25T00:35:08.659Z,998.99
2017-04-25T00:35:49.268Z,998.96
2017-04-25T00:36:29.871Z,998.93
2017-04-25T00:37:10.464Z,998.9
2017-04-25T00:37:51.086Z,998.92
2017-04-25T00:38:31.695Z,998.86
2017-04-25T00:39:12.394Z,998.88
2017-04-25T00:39:53.000Z,998.83
2017-04-25T00:40:33.596Z,998.82
2017-04-25T00:41:14.208Z,998.82
2017-04-25T00:41:54.812Z,998.8
2017-04-25T00:42:35.436Z,998.78
2017-04-25T00:43:16.066Z,998.76
2017-04-25T00:43:56.707Z,998.74
2017-04-25T00:44:37.306Z,998.73
2017-04-25T00:45:17.920Z,998.71
2017-04-25T00:45:58.550Z,998.65
2017-04-25T00:46:39.168Z,998.67
2017-04-25T00:47:19.773Z,998.68
2017-04-25T00:48:00.393Z,998.63
2017-04-25T00:48:41.021Z,998.65
2017-04-25T00:49:21.634Z,998.62
2017-04-25T00:50:02.248Z,998.61
2017-04-25T00:50:42.847Z,998.69
2017-04-25T00:51:23.465Z,998.61
2017-04-25T00:52:04.127Z,998.64
2017-04-25T00:52:44.752Z,998.59
2017-04-25T00:53:27.905Z,998.63
2017-04-25T00:54:08.506Z,998.62
2017-04-25T00:54:49.107Z,998.62
2017-04-25T00:55:29.723Z,998.61
2017-04-25T00:56:10.363Z,998.57
2017-04-25T00:56:50.992Z,998.57
2017-04-25T00:57:31.640Z,998.56
2017-04-25T00:58:12.223Z,998.52
2017-04-25T00:58:52.828Z,998.47
2017-04-25T00:59:33.461Z,998.45
2017-04-25T01:00:14.091Z,998.48
2017-04-25T01:00:54.689Z,998.46
2017-04-25T01:01:35.285Z,998.43
2017-04-25T01:02:15.917Z,998.4
2017-04-25T01:02:56.533Z,998.4
2017-04-25T01:03:37.142Z,998.37
2017-04-25T01:04:17.777Z,998.37
2017-04-25T01:04:58.411Z,998.37
2017-04-25T01:05:39.037Z,998.31
2017-04-25T01:06:19.645Z,998.35
2017-04-25T01:07:00.316Z,998.29
2017-04-25T01:07:40.959Z,998.3
2017-04-25T01:08:21.589Z,998.29
2017-04-25T01:09:02.240Z,998.28
2017-04-25T01:09:42.913Z,998.3
2017-04-25T01:10:23.538Z,998.32
2017-04-25T01:11:04.173Z,998.28
2017-04-25T01:11:44.767Z,998.33
2017-04-25T01:12:25.370Z,998.29
2017-04-25T01:13:05.989Z,998.25
2017-04-25T01:13:46.596Z,998.27
2017-04-25T01:14:27.203Z,998.27
2017-04-25T01:15:07.827Z,998.27
2017-04-25T01:15:48.442Z,998.26
2017-04-25T01:16:29.094Z,998.28
2017-04-25T01:17:09.710Z,998.27
2017-04-25T01:17:50.371Z,998.28
2017-04-25T01:18:31.013Z,998.24
2017-04-25T01:19:11.605Z,998.23
2017-04-25T01:19:52.234Z,998.21
2017-04-25T01:20:32.896Z,998.17
2017-04-25T01:21:13.510Z,998.19
2017-04-25T01:21:54.117Z,998.17
2017-04-25T01:22:34.708Z,998.14
2017-04-25T01:23:15.338Z,998.19
2017-04-25T01:23:55.954Z,998.13
2017-04-25T01:24:36.572Z,998.1
2017-04-25T01:25:17.200Z,998.08
2017-04-25T01:25:57.801Z,998.07
2017-04-25T01:26:38.419Z,998.05
2017-04-25T01:27:19.051Z,998.03
2017-04-25T01:27:59.673Z,998.05
2017-04-25T01:28:40.293Z,998
2017-04-25T01:29:20.925Z,998.06
2017-04-25T01:30:01.518Z,998
2017-04-25T01:30:42.155Z,998.03
2017-04-25T01:31:22.790Z,998.01
2017-04-25T01:32:03.376Z,998.01
2017-04-25T01:32:43.986Z,997.97
2017-04-25T01:33:24.597Z,997.99
2017-04-25T01:34:05.211Z,997.98
2017-04-25T01:34:45.843Z,997.96
2017-04-25T01:35:26.490Z,997.98
2017-04-25T01:36:07.101Z,998
2017-04-25T01:36:47.717Z,997.98
2017-04-25T01:37:28.333Z,997.95
2017-04-25T01:38:08.947Z,997.97
2017-04-25T01:38:49.557Z,997.91
2017-04-25T01:39:30.155Z,997.94
2017-04-25T01:40:10.798Z,997.91
2017-04-25T01:40:51.456Z,997.92
2017-04-25T01:41:32.067Z,997.89
2017-04-25T01:42:12.693Z,997.92
2017-04-25T01:42:53.308Z,997.93
2017-04-25T01:43:33.914Z,997.85
2017-04-25T01:44:14.517Z,997.88
2017-04-25T01:44:55.122Z,997.88
2017-04-25T01:45:35.773Z,997.88
2017-04-25T01:46:16.366Z,997.91
2017-04-25T01:46:56.980Z,997.85
2017-04-25T01:47:37.579Z,997.84
2017-04-25T01:48:18.209Z,997.78
2017-04-25T01:48:58.843Z,997.8
2017-04-25T01:49:39.460Z,997.8
2017-04-25T01:50:20.048Z,997.79
2017-04-25T01:51:00.655Z,997.79
2017-04-25T01:51:41.248Z,997.78
2017-04-25T01:52:21.862Z,997.72
2017-04-25T01:53:02.492Z,997.75
2017-04-25T01:53:43.110Z,997.69
2017-04-25T01:54:23.750Z,997.66
2017-04-25T01:55:04.347Z,997.65
2017-04-25T01:55:44.959Z,997.64
2017-04-25T01:56:25.653Z,997.63
2017-04-25T01:57:06.261Z,997.68
2017-04-25T01:57:46.886Z,997.61
2017-04-25T01:58:27.509Z,997.61
2017-04-25T01:59:08.174Z,997.6
2017-04-25T01:59:48.782Z,997.61
2017-04-25T02:00:29.407Z,997.58
2017-04-25T02:01:10.015Z,997.6
2017-04-25T02:01:50.630Z,997.59
2017-04-25T02:02:31.265Z,997.56
2017-04-25T02:03:11.887Z,997.58
2017-04-25T02:03:52.503Z,997.58
2017-04-25T02:04:33.181Z,997.59
2017-04-25T02:05:13.785Z,997.53
2017-04-25T02:05:54.380Z,997.55
2017-04-25T02:06:34.989Z,997.53
2017-04-25T02:07:15.635Z,997.54
2017-04-25T02:07:56.247Z,997.54
2017-04-25T02:08:36.890Z,997.51
2017-04-25T02:09:17.499Z,997.48
2017-04-25T02:09:58.107Z,997.45
2017-04-25T02:10:38.702Z,997.46
2017-04-25T02:11:19.330Z,997.42
2017-04-25T02:11:59.952Z,997.43
2017-04-25T02:12:40.561Z,997.44
2017-04-25T02:13:21.156Z,997.41
2017-04-25T02:14:01.780Z,997.4
2017-04-25T02:14:42.369Z,997.41
2017-04-25T02:15:23.066Z,997.4
2017-04-25T02:16:03.728Z,997.36
2017-04-25T02:16:44.316Z,997.38
2017-04-25T02:17:24.926Z,997.34
2017-04-25T02:18:05.526Z,997.38
2017-04-25T02:18:46.127Z,997.34
2017-04-25T02:19:26.735Z,997.35
2017-04-25T02:20:07.345Z,997.34
2017-04-25T02:20:47.999Z,997.31
2017-04-25T02:21:28.592Z,997.29
2017-04-25T02:22:09.208Z,997.32
2017-04-25T02:22:49.865Z,997.27
2017-04-25T02:23:30.496Z,997.27
2017-04-25T02:24:11.099Z,997.25
2017-04-25T02:24:51.725Z,997.28
2017-04-25T02:25:32.415Z,997.27
2017-04-25T02:26:13.016Z,997.23
2017-04-25T02:26:53.661Z,997.22
2017-04-25T02:27:34.341Z,997.27
2017-04-25T02:28:15.013Z,997.23
2017-04-25T02:28:55.645Z,997.23
2017-04-25T02:29:36.282Z,997.24
2017-04-25T02:30:16.923Z,997.21
2017-04-25T02:30:57.536Z,997.17
2017-04-25T02:31:38.169Z,997.13
2017-04-25T02:32:18.784Z,997.15
2017-04-25T02:32:59.402Z,997.18
2017-04-25T02:33:40.022Z,997.11
2017-04-25T02:34:20.647Z,997.15
2017-04-25T02:35:01.242Z,997.17
2017-04-25T02:35:41.847Z,997.14
2017-04-25T02:36:22.471Z,997.11
2017-04-25T02:37:03.094Z,997.05
2017-04-25T02:37:43.714Z,997.11
2017-04-25T02:38:24.311Z,997.07
2017-04-25T02:39:04.945Z,997.03
2017-04-25T02:39:45.551Z,997.04
2017-04-25T02:40:26.167Z,997.07
2017-04-25T02:41:06.778Z,997.02
2017-04-25T02:41:47.422Z,997
2017-04-25T02:42:28.086Z,996.98
2017-04-25T02:43:08.720Z,996.99
2017-04-25T02:43:49.361Z,996.99
2017-04-25T02:44:29.981Z,997
2017-04-25T02:45:10.595Z,996.99
2017-04-25T02:45:51.237Z,996.95
2017-04-25T02:46:31.883Z,996.94
2017-04-25T02:47:12.467Z,996.97
2017-04-25T02:47:53.106Z,996.87
2017-04-25T02:48:33.692Z,996.89
2017-04-25T02:49:14.314Z,996.89
2017-04-25T02:49:54.922Z,996.88
2017-04-25T02:50:35.531Z,996.89
2017-04-25T02:51:16.167Z,996.9
2017-04-25T02:51:56.791Z,996.86
2017-04-25T02:52:37.434Z,996.85
2017-04-25T02:53:18.075Z,996.91
2017-04-25T02:53:58.719Z,996.85
2017-04-25T02:54:39.338Z,996.85
2017-04-25T02:55:19.973Z,996.91
2017-04-25T02:56:00.590Z,996.86
2017-04-25T02:56:41.195Z,996.85
2017-04-25T02:57:21.809Z,996.8
2017-04-25T02:58:02.450Z,996.82
2017-04-25T02:58:43.101Z,996.83
2017-04-25T02:59:23.751Z,996.78
2017-04-25T03:00:04.473Z,996.8
2017-04-25T03:00:44.971Z,996.81
2017-04-25T03:01:25.644Z,996.81
2017-04-25T03:02:06.262Z,996.81
2017-04-25T03:02:46.884Z,996.78
2017-04-25T03:03:27.505Z,996.74
2017-04-25T03:04:08.106Z,996.76
2017-04-25T03:04:48.719Z,996.78
2017-04-25T03:05:29.365Z,996.73
2017-04-25T03:06:09.974Z,996.75
2017-04-25T03:06:50.581Z,996.76
2017-04-25T03:07:31.189Z,996.73
2017-04-25T03:08:11.782Z,996.74
2017-04-25T03:08:52.386Z,996.69
2017-04-25T03:09:32.988Z,996.7
2017-04-25T03:10:13.606Z,996.65
2017-04-25T03:10:54.219Z,996.67
2017-04-25T03:11:34.817Z,996.67
2017-04-25T03:12:15.443Z,996.68
2017-04-25T03:12:56.046Z,996.66
2017-04-25T03:13:36.652Z,996.64
2017-04-25T03:14:17.296Z,996.65
2017-04-25T03:14:57.883Z,996.65
2017-04-25T03:15:38.502Z,996.63
2017-04-25T03:16:19.094Z,996.65
2017-04-25T03:16:59.711Z,996.63
2017-04-25T03:17:40.311Z,996.64
2017-04-25T03:18:20.935Z,996.64
2017-04-25T03:19:01.542Z,996.61
2017-04-25T03:19:42.158Z,996.65
2017-04-25T03:20:22.790Z,996.65
2017-04-25T03:21:03.421Z,996.63
2017-04-25T03:21:44.047Z,996.63
2017-04-25T03:22:24.633Z,996.67
2017-04-25T03:23:05.293Z,996.64
2017-04-25T03:23:45.899Z,996.65
2017-04-25T03:24:26.519Z,996.7
2017-04-25T03:25:07.142Z,996.64
2017-04-25T03:25:47.749Z,996.65
2017-04-25T03:26:28.357Z,996.6
2017-04-25T03:27:08.983Z,996.65
2017-04-25T03:27:49.590Z,996.62
2017-04-25T03:28:30.197Z,996.59
2017-04-25T03:29:10.805Z,996.61
2017-04-25T03:29:51.427Z,996.57
2017-04-25T03:30:32.090Z,996.57
2017-04-25T03:31:12.699Z,996.57
2017-04-25T03:31:53.299Z,996.58
2017-04-25T03:32:33.927Z,996.64
2017-04-25T03:33:14.535Z,996.59
2017-04-25T03:33:55.156Z,996.58
2017-04-25T03:34:35.816Z,996.57
2017-04-25T03:35:16.425Z,996.58
2017-04-25T03:35:57.033Z,996.58
2017-04-25T03:36:37.653Z,996.59
2017-04-25T03:37:18.263Z,996.66
2017-04-25T03:37:58.854Z,996.64
2017-04-25T03:38:39.481Z,996.69
2017-04-25T03:39:20.115Z,996.67
2017-04-25T03:40:00.726Z,996.7
2017-04-25T03:40:41.349Z,996.72
2017-04-25T03:41:21.959Z,996.64
2017-04-25T03:42:02.560Z,996.69
2017-04-25T03:42:43.186Z,996.7
2017-04-25T03:43:23.789Z,996.67
2017-04-25T03:44:04.409Z,996.66
2017-04-25T03:44:45.043Z,996.7
2017-04-25T03:45:25.653Z,996.67
2017-04-25T03:46:06.265Z,996.66
2017-04-25T03:46:46.874Z,996.65
2017-04-25T03:47:27.513Z,996.67
2017-04-25T03:48:08.133Z,996.59
2017-04-25T03:48:48.745Z,996.61
2017-04-25T03:49:29.363Z,996.58
2017-04-25T03:50:09.967Z,996.62
2017-04-25T03:50:50.591Z,996.55
2017-04-25T03:51:31.224Z,996.54
2017-04-25T03:52:11.860Z,996.54
2017-04-25T03:52:52.484Z,996.53
2017-04-25T03:53:33.096Z,996.5
2017-04-25T03:54:13.703Z,996.5
2017-04-25T03:54:54.320Z,996.51
2017-04-25T03:55:34.934Z,996.49
2017-04-25T03:56:15.554Z,996.49
2017-04-25T03:56:56.222Z,996.47
2017-04-25T03:57:36.970Z,996.49
2017-04-25T03:58:17.600Z,996.49
2017-04-25T03:58:58.211Z,996.48
2017-04-25T03:59:38.826Z,996.48
2017-04-25T04:00:19.468Z,996.46
2017-04-25T04:01:00.085Z,996.48
2017-04-25T04:01:40.738Z,996.49
2017-04-25T04:02:21.361Z,996.49
2017-04-25T04:03:02.021Z,996.45
2017-04-25T04:03:42.624Z,996.43
2017-04-25T04:04:23.261Z,996.45
2017-04-25T04:05:03.897Z,996.45
2017-04-25T04:05:44.523Z,996.44
2017-04-25T04:06:25.153Z,996.43
2017-04-25T04:07:05.786Z,996.44
2017-04-25T04:07:46.398Z,996.44
2017-04-25T04:08:26.996Z,996.41
2017-04-25T04:09:07.661Z,996.43
2017-04-25T04:09:48.292Z,996.43
2017-04-25T04:10:28.958Z,996.4
2017-04-25T04:11:09.558Z,996.39
2017-04-25T04:11:50.170Z,996.34
2017-04-25T04:12:30.800Z,996.35
2017-04-25T04:13:11.435Z,996.34
2017-04-25T04:13:52.042Z,996.31
2017-04-25T04:14:32.750Z,996.32
2017-04-25T04:15:13.374Z,996.3
2017-04-25T04:15:54.031Z,996.31
2017-04-25T04:16:34.677Z,996.3
2017-04-25T04:17:15.301Z,996.32
2017-04-25T04:17:55.949Z,996.28
2017-04-25T04:18:36.615Z,996.28
2017-04-25T04:19:17.241Z,996.27
2017-04-25T04:19:57.857Z,996.26
2017-04-25T04:20:38.489Z,996.25
2017-04-25T04:21:19.130Z,996.27
2017-04-25T04:21:59.733Z,996.27
2017-04-25T04:22:40.482Z,996.32
2017-04-25T04:23:21.084Z,996.24
2017-04-25T04:24:01.721Z,996.25
2017-04-25T04:24:42.357Z,996.24
2017-04-25T04:25:23.001Z,996.2
2017-04-25T04:26:03.636Z,996.2
2017-04-25T04:26:44.266Z,996.17
2017-04-25T04:27:24.870Z,996.2
2017-04-25T04:28:05.555Z,996.15
2017-04-25T04:28:46.233Z,996.16
2017-04-25T04:29:26.837Z,996.11
2017-04-25T04:30:07.449Z,996.13
2017-04-25T04:30:48.051Z,996.16
2017-04-25T04:31:28.695Z,996.1
2017-04-25T04:32:09.309Z,996.14
2017-04-25T04:32:49.921Z,996.09
2017-04-25T04:33:30.531Z,996.09
2017-04-25T04:34:11.164Z,996.14
2017-04-25T04:34:51.795Z,996.1
2017-04-25T04:35:32.406Z,996.08
2017-04-25T04:36:13.013Z,996.08
2017-04-25T04:36:53.630Z,996.12
2017-04-25T04:37:34.243Z,996.1
2017-04-25T04:38:14.840Z,996.09
2017-04-25T04:38:55.458Z,996.11
2017-04-25T04:39:36.080Z,996.12
2017-04-25T04:40:16.689Z,996.09
2017-04-25T04:40:57.324Z,996.1
2017-04-25T04:41:37.979Z,996.11
2017-04-25T04:42:18.620Z,996.1
2017-04-25T04:42:59.255Z,996.12
2017-04-25T04:43:39.955Z,996.12
2017-04-25T04:44:20.580Z,996.13
2017-04-25T04:45:01.224Z,996.13
2017-04-25T04:45:41.856Z,996.13
2017-04-25T04:46:22.464Z,996.1
2017-04-25T04:47:03.092Z,996.1
2017-04-25T04:47:43.714Z,996.07
2017-04-25T04:48:24.312Z,996.16
2017-04-25T04:49:04.974Z,996.1
2017-04-25T04:49:45.598Z,996.08
2017-04-25T04:50:26.224Z,996.07
2017-04-25T04:51:06.887Z,996.07
2017-04-25T04:51:47.501Z,996.05
2017-04-25T04:52:28.122Z,996.06
2017-04-25T04:53:08.775Z,996.03
2017-04-25T04:53:49.495Z,996.08
2017-04-25T04:54:30.196Z,996.08
2017-04-25T04:55:10.817Z,996.1
2017-04-25T04:55:51.439Z,996.1
2017-04-25T04:56:32.122Z,996.09
2017-04-25T04:57:12.772Z,996.1
2017-04-25T04:57:53.468Z,996.1
2017-04-25T04:58:34.127Z,996.06
2017-04-25T04:59:14.802Z,996.08
2017-04-25T04:59:55.414Z,996.1
2017-04-25T05:00:36.057Z,996.08
2017-04-25T05:01:16.707Z,996.1
2017-04-25T05:01:57.361Z,996.06
2017-04-25T05:02:38.084Z,996.1
2017-04-25T05:03:18.721Z,996.08
2017-04-25T05:03:59.453Z,996.09
2017-04-25T05:04:40.173Z,996.05
2017-04-25T05:05:20.964Z,996.08
2017-04-25T05:06:01.670Z,996.07
2017-04-25T05:06:42.353Z,996.07
2017-04-25T05:07:23.033Z,996.09
2017-04-25T05:08:03.688Z,996.08
2017-04-25T05:08:44.358Z,996.06
2017-04-25T05:09:25.007Z,996.02
2017-04-25T05:10:05.649Z,996.04
2017-04-25T05:10:46.281Z,996.05
2017-04-25T05:11:26.927Z,996.04
2017-04-25T05:12:07.578Z,996.05
2017-04-25T05:12:48.199Z,996.04
2017-04-25T05:13:28.823Z,996.03
2017-04-25T05:14:09.487Z,996.05
2017-04-25T05:14:50.107Z,996.01
2017-04-25T05:15:30.718Z,996
2017-04-25T05:16:11.353Z,996.01
2017-04-25T05:16:51.944Z,996.02
2017-04-25T05:17:32.576Z,995.98
2017-04-25T05:18:13.221Z,995.98
2017-04-25T05:18:53.844Z,995.99
2017-04-25T05:19:34.450Z,996.02
2017-04-25T05:20:15.085Z,996.03
2017-04-25T05:20:55.696Z,996
2017-04-25T05:21:36.310Z,995.95
2017-04-25T05:22:16.946Z,996.03
2017-04-25T05:22:57.579Z,996.04
2017-04-25T05:23:38.204Z,995.99
2017-04-25T05:24:18.818Z,996
2017-04-25T05:24:59.440Z,996.02
2017-04-25T05:25:40.108Z,996.06
2017-04-25T05:26:20.755Z,996.07
2017-04-25T05:27:01.385Z,996.03
2017-04-25T05:27:42.033Z,996.11
2017-04-25T05:28:22.653Z,996.02
2017-04-25T05:29:03.314Z,996.05
2017-04-25T05:29:43.982Z,996.06
2017-04-25T05:30:24.785Z,996.03
2017-04-25T05:31:05.428Z,996.03
2017-04-25T05:31:46.180Z,996.06
2017-04-25T05:32:26.796Z,996.02
2017-04-25T05:33:07.422Z,996.04
2017-04-25T05:33:48.044Z,996.01
2017-04-25T05:34:28.697Z,996.06
2017-04-25T05:35:09.355Z,996.06
2017-04-25T05:35:50.011Z,996.04
2017-04-25T05:36:30.627Z,996.06
2017-04-25T05:37:11.264Z,996.05
2017-04-25T05:37:51.937Z,995.99
2017-04-25T05:38:32.563Z,996.02
2017-04-25T05:39:13.196Z,996.05
2017-04-25T05:39:53.863Z,996.05
2017-04-25T05:40:34.485Z,996.05
2017-04-25T05:41:15.117Z,996.05
2017-04-25T05:41:55.729Z,996.08
2017-04-25T05:42:36.343Z,996.08
2017-04-25T05:43:17.000Z,996.12
2017-04-25T05:43:57.624Z,996.09
2017-04-25T05:44:38.241Z,996.13
2017-04-25T05:45:18.907Z,996.1
2017-04-25T05:45:59.523Z,996.09
2017-04-25T05:46:40.145Z,996.07
2017-04-25T05:47:20.771Z,996.13
2017-04-25T05:48:01.401Z,996.07
2017-04-25T05:48:42.004Z,996.08
2017-04-25T05:49:22.616Z,996.05
2017-04-25T05:50:03.215Z,996.06
2017-04-25T05:50:43.815Z,996.14
2017-04-25T05:51:24.432Z,996.09
2017-04-25T05:52:05.066Z,996.08
2017-04-25T05:52:45.680Z,996.07
2017-04-25T05:53:26.312Z,996.06
2017-04-25T05:54:06.947Z,996.06
2017-04-25T05:54:47.552Z,996.13
2017-04-25T05:55:28.170Z,996.09
2017-04-25T05:56:08.779Z,996.05
2017-04-25T05:56:49.417Z,996.06
2017-04-25T05:57:30.013Z,996.07
2017-04-25T05:58:10.662Z,996.03
2017-04-25T05:58:51.261Z,996.11
2017-04-25T05:59:31.889Z,996.1
2017-04-25T06:00:12.497Z,996.07
2017-04-25T06:00:53.125Z,996.07
2017-04-25T06:01:33.726Z,996.07
2017-04-25T06:02:14.325Z,996.09
2017-04-25T06:02:54.959Z,996.1
2017-04-25T06:03:35.569Z,996.09
2017-04-25T06:04:16.179Z,996.07
2017-04-25T06:04:56.798Z,996.12
2017-04-25T06:05:37.422Z,996.11
2017-04-25T06:06:18.034Z,996.07
2017-04-25T06:06:58.658Z,996.13
2017-04-25T06:07:39.323Z,996.03
2017-04-25T06:08:19.960Z,996.09
2017-04-25T06:09:00.618Z,996.07
2017-04-25T06:09:41.227Z,996.11
2017-04-25T06:10:21.852Z,996.11
2017-04-25T06:11:02.480Z,996.08
2017-04-25T06:11:43.145Z,996.08
2017-04-25T06:12:23.739Z,996.07
2017-04-25T06:13:04.497Z,996.08
2017-04-25T06:13:45.113Z,996.05
2017-04-25T06:14:25.749Z,996.06
2017-04-25T06:15:06.309Z,996.09
2017-04-25T06:15:46.924Z,996.04
2017-04-25T06:16:27.539Z,996.04
2017-04-25T06:17:08.150Z,996.08
2017-04-25T06:17:48.719Z,996.13
2017-04-25T06:18:29.349Z,996.15
2017-04-25T06:19:10.317Z,996.15
2017-04-25T06:19:50.905Z,996.15
2017-04-25T06:20:31.532Z,996.12
2017-04-25T06:21:12.894Z,996.13
2017-04-25T06:21:53.530Z,996.16
2017-04-25T06:22:34.154Z,996.13
2017-04-25T06:23:14.712Z,996.19
2017-04-25T06:23:55.336Z,996.15
2017-04-25T06:24:35.922Z,996.16
2017-04-25T06:25:16.726Z,996.18
2017-04-25T06:25:57.266Z,996.17
2017-04-25T06:26:37.848Z,996.14
2017-04-25T06:27:18.466Z,996.15
2017-04-25T06:27:59.103Z,996.17
2017-04-25T06:28:39.674Z,996.15
2017-04-25T06:29:20.292Z,996.21
2017-04-25T06:30:01.012Z,996.18
2017-04-25T06:30:41.613Z,996.2
2017-04-25T06:31:22.193Z,996.21
2017-04-25T06:32:02.767Z,996.24
2017-04-25T06:32:43.360Z,996.18
2017-04-25T06:33:23.929Z,996.21
2017-04-25T06:34:04.565Z,996.2
2017-04-25T06:34:45.514Z,996.16
2017-04-25T06:35:26.085Z,996.18
2017-04-25T06:36:06.676Z,996.21
2017-04-25T06:36:47.246Z,996.22
2017-04-25T06:37:27.838Z,996.22
2017-04-25T06:38:08.392Z,996.25
2017-04-25T06:38:49.012Z,996.18
2017-04-25T06:39:29.582Z,996.25
2017-04-25T06:40:10.173Z,996.26
2017-04-25T06:40:50.756Z,996.27
2017-04-25T06:41:31.345Z,996.24
2017-04-25T06:42:11.983Z,996.21
2017-04-25T06:42:52.573Z,996.17
2017-04-25T06:43:33.161Z,996.22
2017-04-25T06:44:13.768Z,996.27
2017-04-25T06:44:54.340Z,996.27
2017-04-25T06:45:34.952Z,996.24
2017-04-25T06:46:15.545Z,996.32
2017-04-25T06:46:56.133Z,996.29
2017-04-25T06:47:36.753Z,996.39
2017-04-25T06:48:17.382Z,996.33
2017-04-25T06:48:57.964Z,996.36
2017-04-25T06:49:38.532Z,996.38
2017-04-25T06:50:19.127Z,996.46
2017-04-25T06:50:59.780Z,996.39
2017-04-25T06:51:40.406Z,996.4
2017-04-25T06:52:21.006Z,996.4
2017-04-25T06:53:01.650Z,996.39
2017-04-25T06:53:42.696Z,996.41
2017-04-25T06:54:23.269Z,996.45
2017-04-25T06:55:03.895Z,996.41
2017-04-25T06:55:44.476Z,996.42
2017-04-25T06:56:25.388Z,996.39
2017-04-25T06:57:05.969Z,996.38
2017-04-25T06:57:46.661Z,996.36
2017-04-25T06:58:27.231Z,996.41
2017-04-25T06:59:07.825Z,996.39
2017-04-25T06:59:48.487Z,996.41
2017-04-25T07:00:29.071Z,996.44
2017-04-25T07:01:09.680Z,996.44
2017-04-25T07:01:50.413Z,996.47
2017-04-25T07:02:30.952Z,996.47
2017-04-25T07:03:11.531Z,996.46
2017-04-25T07:03:52.126Z,996.53
2017-04-25T07:04:32.706Z,996.54
2017-04-25T07:05:13.587Z,996.55
2017-04-25T07:05:54.073Z,996.54
2017-04-25T07:06:35.926Z,996.57
2017-04-25T07:07:16.903Z,996.62
2017-04-25T07:07:57.638Z,996.63
2017-04-25T07:08:38.242Z,996.58
2017-04-25T07:09:18.864Z,996.62
2017-04-25T07:09:59.820Z,996.65
2017-04-25T07:10:40.439Z,996.69
2017-04-25T07:11:21.034Z,996.66
2017-04-25T07:12:02.159Z,996.71
2017-04-25T07:12:42.810Z,996.71
2017-04-25T07:13:23.397Z,996.72
2017-04-25T07:14:04.166Z,996.75
2017-04-25T07:14:44.870Z,996.78
2017-04-25T07:15:25.453Z,996.78
2017-04-25T07:16:06.052Z,996.82
2017-04-25T07:16:46.650Z,996.83
2017-04-25T07:17:27.224Z,996.8
2017-04-25T07:18:07.800Z,996.79
2017-04-25T07:18:48.380Z,996.83
2017-04-25T07:19:28.993Z,996.84
2017-04-25T07:20:09.866Z,996.87
2017-04-25T07:20:50.477Z,996.87
2017-04-25T07:21:31.067Z,996.87
2017-04-25T07:22:11.634Z,996.86
2017-04-25T07:22:52.265Z,996.89
2017-04-25T07:23:32.849Z,996.9
2017-04-25T07:24:13.414Z,996.9
2017-04-25T07:24:54.011Z,996.91
2017-04-25T07:25:34.566Z,996.99
2017-04-25T07:26:15.140Z,996.99
2017-04-25T07:26:55.730Z,997.02
2017-04-25T07:27:36.301Z,996.98
2017-04-25T07:28:16.884Z,997.03
2017-04-25T07:28:57.465Z,997.05
2017-04-25T07:29:38.047Z,997.1
2017-04-25T07:30:18.635Z,997.13
2017-04-25T07:30:59.274Z,997.15
2017-04-25T07:31:39.876Z,997.18
2017-04-25T07:32:20.470Z,997.16
2017-04-25T07:33:01.043Z,997.18
2017-04-25T07:33:41.619Z,997.22
2017-04-25T07:34:22.232Z,997.2
2017-04-25T07:35:02.844Z,997.19
2017-04-25T07:35:43.445Z,997.14
2017-04-25T07:36:24.030Z,997.17
2017-04-25T07:37:04.633Z,997.16
2017-04-25T07:37:45.228Z,997.15
2017-04-25T07:38:25.819Z,997.21
2017-04-25T07:39:06.441Z,997.21
2017-04-25T07:39:47.077Z,997.17
2017-04-25T07:40:27.662Z,997.2
2017-04-25T07:41:08.260Z,997.18
2017-04-25T07:41:48.846Z,997.2
2017-04-25T07:42:29.454Z,997.21
2017-04-25T07:43:10.027Z,997.22
2017-04-25T07:43:50.614Z,997.26
2017-04-25T07:44:31.215Z,997.26
2017-04-25T07:45:11.802Z,997.32
2017-04-25T07:45:52.397Z,997.31
2017-04-25T07:46:33.060Z,997.33
2017-04-25T07:47:13.641Z,997.35
2017-04-25T07:47:54.213Z,997.36
2017-04-25T07:48:34.807Z,997.35
2017-04-25T07:49:15.448Z,997.39
2017-04-25T07:49:56.091Z,997.4
2017-04-25T07:50:36.671Z,997.4
2017-04-25T07:51:17.314Z,997.42
2017-04-25T07:51:57.923Z,997.34
2017-04-25T07:52:38.503Z,997.31
2017-04-25T07:53:19.110Z,997.32
2017-04-25T07:53:59.700Z,997.36
2017-04-25T07:54:40.439Z,997.39
2017-04-25T07:55:21.031Z,997.43
2017-04-25T07:56:01.599Z,997.46
2017-04-25T07:56:42.182Z,997.45
2017-04-25T07:57:22.829Z,997.51
2017-04-25T07:58:03.417Z,997.51
2017-04-25T07:58:44.001Z,997.51
2017-04-25T07:59:24.620Z,997.52
2017-04-25T08:00:05.187Z,997.51
2017-04-25T08:00:45.754Z,997.51
2017-04-25T08:01:26.346Z,997.53
2017-04-25T08:02:06.987Z,997.6
2017-04-25T08:02:47.586Z,997.59
2017-04-25T08:03:28.171Z,997.6
2017-04-25T08:04:08.741Z,997.61
2017-04-25T08:04:49.305Z,997.71
2017-04-25T08:05:29.912Z,997.65
2017-04-25T08:06:10.492Z,997.67
2017-04-25T08:06:51.065Z,997.68
2017-04-25T08:07:31.670Z,997.66
2017-04-25T08:08:12.249Z,997.7
2017-04-25T08:08:52.839Z,997.67
2017-04-25T08:09:33.409Z,997.66
2017-04-25T08:10:14.011Z,997.67
2017-04-25T08:10:54.591Z,997.71
2017-04-25T08:11:35.228Z,997.68
2017-04-25T08:12:15.831Z,997.67
2017-04-25T08:12:56.422Z,997.71
2017-04-25T08:13:37.008Z,997.67
2017-04-25T08:14:17.589Z,997.71
2017-04-25T08:14:58.172Z,997.66
2017-04-25T08:15:38.767Z,997.74
2017-04-25T08:16:19.335Z,997.74
2017-04-25T08:16:59.919Z,997.71
2017-04-25T08:17:40.500Z,997.76
2017-04-25T08:18:21.104Z,997.75
2017-04-25T08:19:01.704Z,997.76
2017-04-25T08:19:42.289Z,997.75
2017-04-25T08:20:22.882Z,997.78
2017-04-25T08:21:03.464Z,997.74
2017-04-25T08:21:44.055Z,997.8
2017-04-25T08:22:24.655Z,997.77
2017-04-25T08:23:05.239Z,997.78
2017-04-25T08:23:45.827Z,997.83
2017-04-25T08:24:26.435Z,997.8
2017-04-25T08:25:07.038Z,997.8
2017-04-25T08:25:47.590Z,997.85
2017-04-25T08:26:28.203Z,997.84
2017-04-25T08:27:08.784Z,997.86
2017-04-25T08:27:49.380Z,997.87
2017-04-25T08:28:29.953Z,997.88
2017-04-25T08:29:10.550Z,997.89